createdAt,value
2019-02-28T00:01:25.431Z,1.83
2019-02-28T00:03:54.047Z,1.77
2019-02-28T00:06:22.565Z,1.47
2019-02-28T00:08:53.632Z,2.00
2019-02-28T00:11:19.517Z,1.50
2019-02-28T00:13:47.952Z,2.10
2019-02-28T00:16:16.417Z,1.70
2019-02-28T00:18:49.485Z,1.83
2019-02-28T00:21:13.400Z,2.10
2019-02-28T00:23:41.939Z,2.37
2019-02-28T00:26:11.645Z,1.60
2019-02-28T00:28:38.980Z,1.80
2019-02-28T00:31:07.676Z,1.53
2019-02-28T00:33:36.313Z,1.73
2019-02-28T00:36:05.191Z,1.60
2019-02-28T00:38:34.049Z,2.00
2019-02-28T00:41:02.631Z,2.13
2019-02-28T00:43:30.996Z,2.10
2019-02-28T00:46:00.094Z,2.27
2019-02-28T00:48:28.415Z,1.80
2019-02-28T00:50:58.544Z,2.07
2019-02-28T00:53:25.675Z,1.60
2019-02-28T00:55:53.994Z,1.63
2019-02-28T00:58:22.378Z,1.83
2019-02-28T01:00:51.142Z,1.67
2019-02-28T01:03:19.477Z,2.03
2019-02-28T01:05:47.830Z,2.30
2019-02-28T01:08:19.144Z,2.30
2019-02-28T01:10:44.892Z,1.50
2019-02-28T01:13:13.208Z,1.90
2019-02-28T01:15:44.866Z,1.47
2019-02-28T01:18:10.091Z,2.30
2019-02-28T01:20:38.718Z,1.83
2019-02-28T01:23:07.437Z,1.70
2019-02-28T01:25:37.223Z,1.60
2019-02-28T01:28:04.239Z,2.27
2019-02-28T01:30:33.294Z,1.63
2019-02-28T01:33:01.608Z,1.97
2019-02-28T01:35:30.156Z,1.73
2019-02-28T01:37:58.932Z,1.70
2019-02-28T01:40:27.233Z,1.90
2019-02-28T01:42:55.635Z,1.63
2019-02-28T01:45:24.218Z,1.40
2019-02-28T01:47:52.595Z,1.50
2019-02-28T01:50:20.880Z,1.73
2019-02-28T01:52:49.535Z,1.13
2019-02-28T01:55:18.190Z,1.50
2019-02-28T01:57:46.523Z,1.70
2019-02-28T02:00:15.563Z,1.30
2019-02-28T02:02:44.044Z,1.30
2019-02-28T02:05:12.491Z,1.60
2019-02-28T02:07:41.040Z,1.20
2019-02-28T02:10:17.665Z,1.70
2019-02-28T02:12:44.674Z,1.20
2019-02-28T02:15:13.051Z,1.83
2019-02-28T02:17:41.421Z,1.40
2019-02-28T02:20:09.977Z,1.77
2019-02-28T02:22:40.653Z,1.50
2019-02-28T02:25:07.082Z,1.20
2019-02-28T02:27:35.885Z,1.40
2019-02-28T02:30:08.945Z,1.27
2019-02-28T02:32:37.385Z,0.97
2019-02-28T02:35:08.095Z,1.10
2019-02-28T02:37:30.514Z,1.17
2019-02-28T02:39:58.766Z,1.43
2019-02-28T02:42:27.168Z,1.30
2019-02-28T02:44:55.513Z,1.40
2019-02-28T02:47:23.951Z,1.20
2019-02-28T02:49:57.470Z,1.00
2019-02-28T02:52:25.869Z,1.10
2019-02-28T02:54:52.122Z,0.90
2019-02-28T02:57:18.838Z,0.97
2019-02-28T02:59:47.619Z,1.20
2019-02-28T03:02:16.095Z,1.50
2019-02-28T03:04:45.194Z,1.13
2019-02-28T03:07:13.702Z,1.43
2019-02-28T03:09:43.409Z,1.20
2019-02-28T03:12:10.499Z,1.20
2019-02-28T03:14:39.003Z,0.90
2019-02-28T03:17:11.503Z,1.03
2019-02-28T03:19:36.104Z,0.90
2019-02-28T03:22:04.640Z,1.10
2019-02-28T03:24:32.988Z,1.17
2019-02-28T03:27:01.497Z,1.20
2019-02-28T03:29:30.058Z,1.10
2019-02-28T03:31:59.539Z,1.23
2019-02-28T03:34:27.297Z,0.90
2019-02-28T03:36:57.443Z,0.90
2019-02-28T03:39:25.729Z,0.97
2019-02-28T03:41:54.072Z,1.10
2019-02-28T03:44:21.958Z,1.13
2019-02-28T03:46:49.925Z,1.67
2019-02-28T03:49:18.492Z,1.00
2019-02-28T03:51:46.925Z,1.10
2019-02-28T03:54:15.280Z,0.80
2019-02-28T03:56:51.051Z,0.80
2019-02-28T03:59:18.212Z,0.73
2019-02-28T04:01:44.554Z,0.87
2019-02-28T04:04:12.129Z,0.83
2019-02-28T04:06:40.832Z,0.90
2019-02-28T04:09:08.546Z,0.90
2019-02-28T04:11:35.545Z,0.90
2019-02-28T04:14:04.103Z,0.80
2019-02-28T04:16:32.660Z,1.00
2019-02-28T04:19:01.189Z,1.00
2019-02-28T04:21:29.565Z,0.83
2019-02-28T04:23:57.923Z,0.70
2019-02-28T04:26:29.791Z,0.90
2019-02-28T04:28:55.002Z,0.90
2019-02-28T04:31:23.179Z,0.97
2019-02-28T04:33:51.571Z,0.77
2019-02-28T04:36:19.943Z,0.73
2019-02-28T04:38:48.259Z,0.80
2019-02-28T04:41:17.174Z,0.97
2019-02-28T04:43:45.482Z,0.63
2019-02-28T04:46:13.887Z,0.80
2019-02-28T04:48:45.634Z,0.83
2019-02-28T04:51:11.738Z,0.77
2019-02-28T04:53:40.041Z,0.87
2019-02-28T04:56:11.443Z,0.67
2019-02-28T04:58:37.096Z,0.60
2019-02-28T05:01:05.450Z,0.73
2019-02-28T05:03:33.931Z,0.70
2019-02-28T05:06:02.315Z,0.80
2019-02-28T05:08:30.672Z,0.70
2019-02-28T05:10:59.230Z,0.93
2019-02-28T05:13:27.716Z,0.60
2019-02-28T05:15:56.151Z,0.63
2019-02-28T05:18:27.626Z,0.57
2019-02-28T05:20:53.026Z,2.00
2019-02-28T05:23:21.604Z,0.60
2019-02-28T05:25:52.081Z,0.70
2019-02-28T05:28:19.223Z,0.50
2019-02-28T05:30:50.176Z,0.70
2019-02-28T05:33:16.044Z,2.97
2019-02-28T05:35:44.413Z,0.80
2019-02-28T05:38:12.779Z,0.70
2019-02-28T05:40:41.772Z,0.80
2019-02-28T05:43:10.097Z,0.70
2019-02-28T05:45:38.457Z,0.60
2019-02-28T05:48:07.039Z,0.60
2019-02-28T05:50:35.348Z,0.80
2019-02-28T05:53:06.213Z,0.67
2019-02-28T05:55:32.575Z,0.60
2019-02-28T05:58:00.943Z,0.50
2019-02-28T06:00:29.430Z,0.63
2019-02-28T06:02:58.214Z,0.63
2019-02-28T06:05:26.423Z,0.63
2019-02-28T06:07:54.759Z,0.40
2019-02-28T06:10:24.632Z,0.50
2019-02-28T06:12:51.900Z,0.60
2019-02-28T06:15:20.263Z,0.60
2019-02-28T06:17:49.252Z,0.60
2019-02-28T06:20:18.064Z,0.77
2019-02-28T06:22:45.963Z,0.40
2019-02-28T06:25:22.617Z,0.50
2019-02-28T06:27:48.935Z,0.60
2019-02-28T06:30:12.029Z,0.50
2019-02-28T06:32:40.480Z,0.60
2019-02-28T06:35:08.881Z,0.67
2019-02-28T06:37:38.263Z,0.50
2019-02-28T06:40:07.271Z,0.80
2019-02-28T06:42:35.550Z,0.57
2019-02-28T06:45:04.356Z,0.60
2019-02-28T06:47:33.018Z,0.50
2019-02-28T06:50:01.414Z,0.50
2019-02-28T06:52:29.736Z,0.40
2019-02-28T06:54:58.166Z,0.90
2019-02-28T06:57:27.437Z,0.73
2019-02-28T06:59:54.914Z,0.53
2019-02-28T07:02:23.753Z,0.60
2019-02-28T07:04:52.155Z,0.50
2019-02-28T07:07:20.689Z,0.63
2019-02-28T07:09:49.439Z,0.70
2019-02-28T07:12:17.739Z,0.50
2019-02-28T07:14:49.268Z,0.67
2019-02-28T07:17:14.780Z,0.40
2019-02-28T07:19:43.172Z,0.40
2019-02-28T07:22:11.542Z,0.67
2019-02-28T07:24:40.223Z,0.40
2019-02-28T07:27:08.603Z,0.60
2019-02-28T07:29:37.057Z,0.50
2019-02-28T07:32:05.691Z,0.80
2019-02-28T07:34:34.047Z,0.60
2019-02-28T07:37:02.379Z,0.40
2019-02-28T07:39:30.941Z,0.60
2019-02-28T07:42:02.237Z,0.50
2019-02-28T07:44:27.695Z,0.60
2019-02-28T07:46:56.236Z,0.50
2019-02-28T07:49:25.872Z,0.40
2019-02-28T07:51:53.113Z,0.57
2019-02-28T07:54:21.725Z,0.80
2019-02-28T07:56:50.551Z,0.50
2019-02-28T07:59:19.185Z,0.90
2019-02-28T08:01:47.671Z,0.50
2019-02-28T08:04:18.554Z,0.60
2019-02-28T08:06:44.503Z,0.60
2019-02-28T08:09:24.548Z,0.60
2019-02-28T08:11:55.358Z,0.40
2019-02-28T08:14:22.167Z,0.60
2019-02-28T08:16:51.038Z,0.50
2019-02-28T08:19:19.519Z,0.70
2019-02-28T08:21:50.416Z,0.63
2019-02-28T08:24:16.786Z,0.60
2019-02-28T08:26:45.084Z,0.43
2019-02-28T08:29:13.666Z,0.50
2019-02-28T08:31:42.536Z,0.80
2019-02-28T08:34:10.937Z,0.60
2019-02-28T08:36:43.743Z,0.50
2019-02-28T08:39:13.240Z,0.90
2019-02-28T08:41:41.720Z,0.60
2019-02-28T08:44:10.262Z,0.80
2019-02-28T08:46:39.098Z,0.70
2019-02-28T08:49:07.677Z,0.60
2019-02-28T08:51:36.186Z,0.90
2019-02-28T08:54:06.109Z,0.60
2019-02-28T08:56:34.247Z,0.60
2019-02-28T08:59:11.575Z,0.50
2019-02-28T09:01:32.282Z,0.53
2019-02-28T09:04:04.991Z,0.70
2019-02-28T09:06:29.558Z,0.60
2019-02-28T09:08:59.903Z,0.83
2019-02-28T09:11:26.710Z,0.70
2019-02-28T09:13:55.421Z,0.77
2019-02-28T09:16:23.874Z,0.70
2019-02-28T09:18:52.291Z,0.70
2019-02-28T09:21:20.824Z,0.60
2019-02-28T09:23:49.395Z,0.50
2019-02-28T09:26:18.001Z,0.70
2019-02-28T09:28:47.479Z,0.50
2019-02-28T09:31:15.201Z,0.60
2019-02-28T09:33:43.620Z,0.70
2019-02-28T09:36:11.994Z,0.73
2019-02-28T09:38:42.260Z,0.80
2019-02-28T09:41:08.755Z,0.70
2019-02-28T09:43:37.170Z,0.90
2019-02-28T09:46:05.805Z,0.60
2019-02-28T09:48:37.118Z,0.87
2019-02-28T09:51:02.917Z,0.83
2019-02-28T09:53:31.453Z,0.60
2019-02-28T09:55:59.967Z,0.70
2019-02-28T09:58:29.344Z,0.77
2019-02-28T10:00:58.533Z,1.03
2019-02-28T10:03:27.626Z,0.60
2019-02-28T10:05:56.780Z,0.70
2019-02-28T10:08:26.100Z,0.70
2019-02-28T10:10:55.898Z,0.57
2019-02-28T10:13:24.154Z,0.50
2019-02-28T10:15:53.439Z,0.70
2019-02-28T10:18:22.526Z,0.50
2019-02-28T10:20:51.344Z,0.77
2019-02-28T10:23:21.459Z,0.63
2019-02-28T10:25:50.264Z,0.63
2019-02-28T10:28:19.065Z,0.60
2019-02-28T10:30:50.144Z,0.70
2019-02-28T10:33:18.007Z,0.63
2019-02-28T10:35:45.992Z,0.80
2019-02-28T10:38:16.121Z,0.60
2019-02-28T10:40:44.889Z,0.90
2019-02-28T10:43:15.497Z,0.60
2019-02-28T10:45:42.913Z,0.80
2019-02-28T10:48:11.222Z,0.70
2019-02-28T10:50:39.555Z,0.77
2019-02-28T10:53:08.012Z,1.00
2019-02-28T10:55:36.335Z,0.60
2019-02-28T10:58:05.098Z,0.60
2019-02-28T11:00:33.770Z,0.60
2019-02-28T11:03:02.139Z,0.80
2019-02-28T11:05:31.748Z,0.70
2019-02-28T11:08:01.210Z,0.80
2019-02-28T11:10:35.445Z,0.80
2019-02-28T11:13:01.447Z,0.80
2019-02-28T11:15:30.657Z,0.87
2019-02-28T11:17:59.160Z,0.70
2019-02-28T11:20:27.523Z,1.00
2019-02-28T11:22:56.386Z,0.60
2019-02-28T11:25:25.520Z,1.27
2019-02-28T11:27:54.681Z,0.67
2019-02-28T11:30:23.101Z,0.63
2019-02-28T11:32:51.633Z,0.80
2019-02-28T11:35:23.219Z,0.60
2019-02-28T11:37:49.102Z,0.70
2019-02-28T11:40:17.631Z,0.83
2019-02-28T11:42:45.982Z,0.70
2019-02-28T11:45:18.589Z,0.90
2019-02-28T11:47:45.153Z,0.70
2019-02-28T11:50:13.442Z,0.67
2019-02-28T11:52:42.126Z,0.50
2019-02-28T11:55:11.540Z,0.83
2019-02-28T11:57:41.349Z,0.67
2019-02-28T12:00:14.788Z,0.60
2019-02-28T12:02:43.107Z,1.00
2019-02-28T12:05:12.302Z,0.63
2019-02-28T12:07:40.227Z,0.70
2019-02-28T12:10:08.620Z,0.73
2019-02-28T12:12:37.001Z,0.80
2019-02-28T12:15:06.800Z,0.87
2019-02-28T12:17:34.999Z,0.73
2019-02-28T12:20:03.953Z,0.70
2019-02-28T12:22:32.203Z,0.70
2019-02-28T12:25:00.587Z,0.70
2019-02-28T12:27:29.086Z,0.63
2019-02-28T12:29:57.938Z,0.63
2019-02-28T12:32:26.273Z,0.70
2019-02-28T12:34:54.633Z,0.93
2019-02-28T12:37:23.121Z,0.77
2019-02-28T12:39:51.519Z,0.77
2019-02-28T12:42:19.896Z,0.60
2019-02-28T12:44:49.036Z,1.00
2019-02-28T12:47:16.916Z,0.60
2019-02-28T12:49:45.278Z,0.60
2019-02-28T12:52:14.592Z,0.90
2019-02-28T12:54:42.474Z,0.83
2019-02-28T12:57:10.862Z,0.80
2019-02-28T12:59:41.769Z,1.00
2019-02-28T13:02:08.632Z,1.03
2019-02-28T13:04:36.747Z,0.70
2019-02-28T13:07:05.065Z,0.80
2019-02-28T13:09:33.461Z,0.63
2019-02-28T13:12:01.821Z,0.80
2019-02-28T13:14:30.648Z,0.80
2019-02-28T13:16:59.254Z,0.83
2019-02-28T13:19:27.633Z,0.87
2019-02-28T13:21:56.165Z,1.00
2019-02-28T13:24:24.532Z,1.00
2019-02-28T13:26:52.918Z,1.30
2019-02-28T13:29:22.305Z,0.70
2019-02-28T13:31:50.108Z,0.90
2019-02-28T13:34:18.442Z,0.90
2019-02-28T13:36:47.229Z,0.80
2019-02-28T13:39:15.714Z,0.70
2019-02-28T13:41:44.110Z,0.83
2019-02-28T13:44:12.839Z,0.87
2019-02-28T13:46:41.609Z,0.97
2019-02-28T13:49:12.098Z,0.90
2019-02-28T13:51:42.001Z,1.13
2019-02-28T13:54:07.428Z,1.40
2019-02-28T13:56:35.642Z,0.97
2019-02-28T13:59:04.595Z,1.00
2019-02-28T14:01:33.321Z,1.00
2019-02-28T14:04:02.144Z,0.70
2019-02-28T14:06:30.953Z,0.93
2019-02-28T14:08:59.611Z,0.80
2019-02-28T14:11:28.021Z,1.00
2019-02-28T14:13:56.537Z,1.10
2019-02-28T14:16:26.956Z,1.00
2019-02-28T14:18:54.756Z,1.30
2019-02-28T14:21:22.014Z,1.10
2019-02-28T14:23:52.408Z,1.07
2019-02-28T14:26:18.698Z,1.00
2019-02-28T14:28:47.445Z,1.00
2019-02-28T14:31:15.798Z,0.90
2019-02-28T14:33:44.100Z,0.97
2019-02-28T14:36:12.879Z,0.80
2019-02-28T14:38:41.206Z,0.80
2019-02-28T14:41:09.644Z,0.97
2019-02-28T14:43:38.359Z,1.20
2019-02-28T14:46:06.868Z,1.30
2019-02-28T14:48:36.602Z,1.13
2019-02-28T14:51:04.209Z,0.77
2019-02-28T14:53:32.587Z,1.23
2019-02-28T14:56:01.013Z,1.00
2019-02-28T14:58:29.802Z,1.20
2019-02-28T15:00:58.099Z,0.70
2019-02-28T15:03:26.801Z,1.00
2019-02-28T15:05:56.248Z,0.80
2019-02-28T15:08:24.066Z,1.03
2019-02-28T15:10:53.241Z,1.73
2019-02-28T15:13:21.307Z,1.60
2019-02-28T15:15:53.274Z,1.10
2019-02-28T15:18:18.158Z,1.00
2019-02-28T15:20:46.588Z,1.20
2019-02-28T15:23:15.103Z,1.23
2019-02-28T15:25:43.451Z,1.13
2019-02-28T15:28:13.933Z,1.10
2019-02-28T15:30:40.888Z,1.07
2019-02-28T15:33:09.344Z,0.90
2019-02-28T15:35:37.972Z,1.10
2019-02-28T15:38:09.077Z,1.53
2019-02-28T15:40:35.404Z,1.20
2019-02-28T15:43:04.325Z,1.10
2019-02-28T15:45:36.313Z,1.30
2019-02-28T15:48:01.226Z,1.20
2019-02-28T15:50:29.623Z,0.80
2019-02-28T15:52:58.140Z,1.17
2019-02-28T15:55:26.953Z,1.27
2019-02-28T15:57:55.626Z,1.20
2019-02-28T16:00:26.077Z,1.03
2019-02-28T16:02:54.531Z,0.90
2019-02-28T16:05:23.680Z,1.27
2019-02-28T16:07:52.411Z,1.07
2019-02-28T16:10:22.453Z,0.97
2019-02-28T16:12:51.214Z,1.20
2019-02-28T16:15:19.344Z,0.90
2019-02-28T16:17:47.870Z,1.40
2019-02-28T16:20:16.650Z,1.30
2019-02-28T16:22:45.392Z,1.20
2019-02-28T16:25:17.450Z,1.27
2019-02-28T16:27:45.988Z,1.20
2019-02-28T16:30:14.735Z,2.13
2019-02-28T16:32:45.523Z,1.20
2019-02-28T16:35:14.752Z,1.20
2019-02-28T16:37:40.549Z,1.20
2019-02-28T16:40:10.998Z,1.40
2019-02-28T16:42:39.305Z,1.40
2019-02-28T16:45:10.136Z,1.33
2019-02-28T16:47:38.539Z,1.50
2019-02-28T16:50:07.537Z,1.63
2019-02-28T16:52:37.358Z,1.63
2019-02-28T16:55:05.106Z,1.20
2019-02-28T16:57:33.805Z,1.40
2019-02-28T17:00:04.137Z,1.40
2019-02-28T17:02:30.570Z,1.73
2019-02-28T17:04:59.673Z,1.33
2019-02-28T17:07:27.314Z,1.30
2019-02-28T17:09:55.852Z,1.30
2019-02-28T17:12:29.743Z,1.10
2019-02-28T17:14:58.252Z,1.30
2019-02-28T17:17:30.886Z,1.40
2019-02-28T17:19:59.385Z,1.83
2019-02-28T17:22:28.066Z,1.97
2019-02-28T17:24:56.277Z,1.70
2019-02-28T17:27:29.925Z,1.43
2019-02-28T17:30:03.623Z,1.30
2019-02-28T17:32:32.364Z,1.23
2019-02-28T17:35:00.587Z,1.07
2019-02-28T17:37:28.994Z,1.63
2019-02-28T17:39:57.666Z,1.10
2019-02-28T17:42:26.067Z,1.10
2019-02-28T17:45:26.828Z,1.67
2019-02-28T17:48:12.844Z,0.97
2019-02-28T17:50:50.859Z,0.90
2019-02-28T17:55:36.054Z,1.37
2019-02-28T17:58:14.215Z,1.10
2019-02-28T18:01:54.004Z,1.00
2019-02-28T18:06:35.183Z,0.80
2019-02-28T18:09:45.023Z,0.90
2019-02-28T18:14:24.267Z,1.03
2019-02-28T18:18:34.372Z,1.10
2019-02-28T18:21:45.657Z,0.77
2019-02-28T18:24:22.970Z,1.30
2019-02-28T18:31:07.816Z,1.23
2019-02-28T18:33:36.745Z,1.50
2019-02-28T18:36:09.205Z,1.43
2019-02-28T18:38:36.915Z,0.97
2019-02-28T18:41:06.458Z,1.10
2019-02-28T18:43:33.774Z,1.47
2019-02-28T18:46:02.133Z,0.80
2019-02-28T18:48:30.466Z,0.97
2019-02-28T18:50:58.999Z,0.77
2019-02-28T18:53:27.440Z,1.23
2019-02-28T18:55:55.779Z,1.17
2019-02-28T18:58:24.602Z,1.60
2019-02-28T19:00:53.103Z,1.53
2019-02-28T19:03:21.471Z,1.13
2019-02-28T19:05:50.183Z,1.50
2019-02-28T19:08:18.550Z,0.90
2019-02-28T19:10:47.010Z,1.03
2019-02-28T19:13:15.547Z,1.13
2019-02-28T19:15:45.195Z,1.13
2019-02-28T19:18:12.299Z,1.40
2019-02-28T19:20:41.053Z,1.20
2019-02-28T19:23:09.477Z,1.20
2019-02-28T19:25:37.785Z,1.53
2019-02-28T19:28:06.204Z,1.20
2019-02-28T19:30:35.444Z,1.53
2019-02-28T19:33:03.858Z,1.00
2019-02-28T19:35:32.546Z,1.70
2019-02-28T19:38:00.924Z,1.23
2019-02-28T19:40:29.469Z,1.03
2019-02-28T19:42:58.100Z,1.53
2019-02-28T19:45:26.671Z,1.27
2019-02-28T19:47:55.062Z,1.37
2019-02-28T19:50:23.733Z,1.10
2019-02-28T19:52:54.015Z,1.00
2019-02-28T19:55:20.469Z,1.23
2019-02-28T19:57:49.486Z,1.50
2019-02-28T20:00:17.859Z,1.30
2019-02-28T20:02:46.205Z,1.60
2019-02-28T20:05:14.575Z,1.10
2019-02-28T20:07:43.044Z,1.30
2019-02-28T20:10:12.747Z,1.57
2019-02-28T20:12:41.151Z,1.33
2019-02-28T20:15:10.807Z,1.30
2019-02-28T20:17:39.134Z,1.77
2019-02-28T20:20:10.429Z,1.37
2019-02-28T20:22:38.756Z,1.43
2019-02-28T20:25:10.103Z,1.80
2019-02-28T20:27:36.945Z,1.00
2019-02-28T20:30:05.470Z,1.17
2019-02-28T20:32:34.164Z,1.80
2019-02-28T20:35:02.800Z,1.37
2019-02-28T20:37:31.201Z,1.80
2019-02-28T20:39:59.484Z,1.00
2019-02-28T20:42:28.261Z,1.23
2019-02-28T20:44:56.746Z,1.10
2019-02-28T20:47:25.085Z,1.40
2019-02-28T20:49:54.012Z,1.13
2019-02-28T20:52:22.601Z,1.30
2019-02-28T20:54:51.114Z,1.23
2019-02-28T20:57:19.919Z,1.33
2019-02-28T20:59:48.277Z,1.43
2019-02-28T21:02:16.622Z,1.30
2019-02-28T21:04:45.512Z,1.23
2019-02-28T21:07:13.810Z,1.30
2019-02-28T21:09:44.904Z,1.07
2019-02-28T21:12:10.948Z,1.60
2019-02-28T21:14:39.493Z,2.07
2019-02-28T21:17:08.165Z,1.70
2019-02-28T21:19:37.003Z,1.63
2019-02-28T21:22:05.382Z,0.80
2019-02-28T21:24:33.731Z,1.20
2019-02-28T21:27:02.443Z,1.20
2019-02-28T21:29:30.820Z,1.20
2019-02-28T21:31:59.215Z,1.30
2019-02-28T21:34:27.831Z,1.93
2019-02-28T21:36:56.238Z,1.33
2019-02-28T21:39:24.638Z,1.07
2019-02-28T21:41:53.477Z,1.63
2019-02-28T21:44:21.795Z,1.57
2019-02-28T21:46:50.152Z,1.30
2019-02-28T21:49:18.933Z,1.37
2019-02-28T21:51:47.290Z,1.30
2019-02-28T21:54:15.664Z,1.37
2019-02-28T21:56:44.507Z,1.50
2019-02-28T21:59:12.887Z,1.50
2019-02-28T22:01:41.595Z,1.10
2019-02-28T22:04:10.417Z,1.40
2019-02-28T22:06:38.943Z,1.23
2019-02-28T22:09:08.169Z,1.30
2019-02-28T22:11:36.776Z,1.10
2019-02-28T22:14:05.117Z,2.10
2019-02-28T22:16:33.642Z,1.20
2019-02-28T22:19:02.673Z,1.30
2019-02-28T22:21:31.604Z,1.23
2019-02-28T22:23:59.994Z,1.00
2019-02-28T22:26:28.598Z,1.20
2019-02-28T22:28:57.090Z,2.07
2019-02-28T22:31:41.126Z,1.40
2019-02-28T22:34:31.605Z,1.60
2019-02-28T22:37:00.533Z,1.93
2019-02-28T22:39:28.878Z,1.30
2019-02-28T22:41:57.701Z,1.67
2019-02-28T22:44:26.562Z,2.27
2019-02-28T22:46:55.069Z,1.53
2019-02-28T22:49:23.435Z,1.23
2019-02-28T22:51:52.136Z,1.97
2019-02-28T22:54:20.478Z,1.60
2019-02-28T22:56:48.819Z,1.73
2019-02-28T22:59:17.570Z,1.40
2019-02-28T23:01:46.126Z,1.13
2019-02-28T23:04:14.481Z,1.57
2019-02-28T23:06:43.320Z,1.13
2019-02-28T23:09:11.747Z,1.40
2019-02-28T23:11:40.176Z,1.50
2019-02-28T23:14:08.963Z,1.30
2019-02-28T23:16:37.413Z,1.90
2019-02-28T23:19:05.797Z,1.30
2019-02-28T23:21:34.436Z,2.00
2019-02-28T23:24:02.803Z,2.60
2019-02-28T23:26:31.199Z,1.70
2019-02-28T23:29:07.164Z,1.67
2019-02-28T23:32:34.322Z,1.40
2019-02-28T23:35:03.365Z,1.40
2019-02-28T23:37:31.739Z,1.90
2019-02-28T23:40:00.331Z,1.30
2019-02-28T23:42:29.111Z,1.60
2019-02-28T23:44:57.518Z,1.37
2019-02-28T23:47:26.256Z,1.40
2019-02-28T23:49:54.695Z,1.70
2019-02-28T23:52:23.182Z,2.07
2019-02-28T23:54:52.038Z,1.13
2019-02-28T23:57:20.768Z,1.50
2019-02-28T23:59:49.597Z,1.33
